Time;durP1;ratioP1;P1;durP2;ratioP2;P2;SDS_P1;SDS_P2;PMS_P1;PMS_P2;Temp;Humidity;BMP_temperature;BMP_pressure;BME280_temperature;BME280_humidity;BME280_pressure;Samples;Min_cycle;Max_cycle;Signal;HPM_P1;HPM_P2
2022/10/31 00:00:52;;;;;;;13.05;6.72;;;;;;;14.35;100.00;101073.50;8375188;28;20056;-52
2022/10/31 00:04:53;;;;;;;16.63;6.80;;;;;;;14.45;100.00;101080.59;8375810;28;20105;-50
2022/10/31 00:08:56;;;;;;;19.50;7.20;;;;;;;14.44;100.00;101073.47;8376147;28;20414;-50
2022/10/31 00:12:57;;;;;;;15.00;8.30;;;;;;;14.13;100.00;101068.44;8390725;28;20025;-52
2022/10/31 00:16:58;;;;;;;17.27;7.45;;;;;;;14.07;100.00;101063.59;8392682;28;20127;-51
2022/10/31 00:21:00;;;;;;;16.10;7.70;;;;;;;14.04;100.00;101075.63;8392423;28;20044;-50
2022/10/31 00:25:01;;;;;;;14.88;7.93;;;;;;;14.12;100.00;101080.31;8393027;28;20055;-52
2022/10/31 00:29:02;;;;;;;17.70;7.60;;;;;;;14.21;100.00;101096.56;8392684;28;20033;-51
2022/10/31 00:33:05;;;;;;;24.73;8.57;;;;;;;14.31;100.00;101104.75;8391907;28;20028;-51
2022/10/31 00:37:05;;;;;;;19.63;7.97;;;;;;;14.27;100.00;101109.63;8392019;28;20048;-53
2022/10/31 00:41:06;;;;;;;13.82;7.38;;;;;;;14.26;100.00;101107.91;8388577;28;20071;-50
2022/10/31 00:45:09;;;;;;;17.23;7.55;;;;;;;14.16;100.00;101104.34;8391927;28;20041;-50
2022/10/31 00:49:09;;;;;;;20.52;7.55;;;;;;;14.09;100.00;101105.94;8390350;28;20047;-50
2022/10/31 00:53:10;;;;;;;14.98;7.90;;;;;;;14.01;100.00;101102.25;8391991;28;20033;-51
2022/10/31 00:57:11;;;;;;;14.82;8.32;;;;;;;13.94;100.00;101074.81;8391394;28;20043;-51
2022/10/31 01:01:12;;;;;;;23.17;9.48;;;;;;;13.98;100.00;101081.66;8390054;28;20112;-52
2022/10/31 01:05:13;;;;;;;15.65;7.82;;;;;;;13.84;100.00;101091.13;8387951;28;20090;-52
2022/10/31 01:09:13;;;;;;;17.00;7.85;;;;;;;13.67;100.00;101078.31;8370329;28;20036;-50
2022/10/31 01:13:14;;;;;;;23.83;8.23;;;;;;;13.70;100.00;101074.44;8372136;28;20044;-51
2022/10/31 01:17:15;;;;;;;22.80;8.15;;;;;;;13.67;100.00;101074.75;8388577;28;20399;-50
2022/10/31 01:21:19;;;;;;;16.15;7.75;;;;;;;13.73;100.00;101068.72;8359472;28;20387;-50
2022/10/31 01:25:22;;;;;;;19.08;8.43;;;;;;;13.66;100.00;101059.44;8356043;28;20112;-51
2022/10/31 01:29:23;;;;;;;21.10;9.30;;;;;;;13.64;100.00;101061.44;8361981;28;20091;-53
2022/10/31 01:33:23;;;;;;;16.48;8.20;;;;;;;13.61;100.00;101051.72;8372557;28;20063;-50
2022/10/31 01:37:24;;;;;;;14.63;7.20;;;;;;;13.52;100.00;101051.75;8373039;28;20099;-50
2022/10/31 01:41:29;;;;;;;15.50;8.25;;;;;;;13.41;100.00;101054.63;8372536;28;20040;-50
2022/10/31 01:45:29;;;;;;;;;;;;;;;13.49;100.00;101049.34;8373261;28;20047;-50
2022/10/31 01:49:43;;;;;;;18.17;8.85;;;;;;;13.65;100.00;101041.41;8373061;28;19917;-52
2022/10/31 01:53:45;;;;;;;18.85;8.82;;;;;;;13.81;100.00;101047.09;8375865;28;20043;-50
2022/10/31 01:57:50;;;;;;;15.88;8.18;;;;;;;13.61;100.00;101040.00;8380799;28;20049;-50
2022/10/31 02:01:52;;;;;;;14.40;7.43;;;;;;;13.58;100.00;101043.03;8345945;28;20430;-50
2022/10/31 02:05:55;;;;;;;20.95;8.98;;;;;;;13.59;100.00;101056.47;8397146;28;20402;-50
2022/10/31 02:09:57;;;;;;;18.52;8.20;;;;;;;13.41;100.00;101060.06;8379373;28;20498;-51
2022/10/31 02:14:00;;;;;;;24.90;8.98;;;;;;;13.45;100.00;101056.06;8379840;28;20048;-50
2022/10/31 02:18:01;;;;;;;18.00;8.70;;;;;;;13.57;100.00;101047.59;8378694;28;20406;-51
2022/10/31 02:22:16;;;;;;;14.38;8.88;;;;;;;13.63;100.00;101048.84;8379836;28;20048;-50
2022/10/31 02:26:51;;;;;;;18.42;8.20;;;;;;;13.30;100.00;101058.34;8380309;28;21569;-50
2022/10/31 02:32:09;;;;;;;23.50;8.52;;;;;;;13.06;100.00;101060.69;8374878;28;20045;-50
2022/10/31 02:36:20;;;;;;;17.92;8.02;;;;;;;13.09;100.00;101064.97;8378924;28;20534;-50
2022/10/31 02:40:29;;;;;;;19.30;8.18;;;;;;;13.23;100.00;101056.38;8378545;28;20438;-52
2022/10/31 02:44:55;;;;;;;21.42;9.32;;;;;;;12.95;100.00;101062.63;8394173;27;20414;-50
2022/10/31 02:49:05;;;;;;;15.10;7.80;;;;;;;12.73;100.00;101054.75;8394544;28;20033;-50
2022/10/31 02:53:05;;;;;;;21.13;8.60;;;;;;;12.81;100.00;101054.94;8395410;28;20413;-50
2022/10/31 02:57:07;;;;;;;15.18;8.80;;;;;;;12.50;100.00;101047.88;8393543;28;20060;-53
2022/10/31 03:01:48;;;;;;;20.05;9.38;;;;;;;12.59;100.00;101055.19;8395185;28;20043;-51
2022/10/31 03:06:20;;;;;;;25.55;11.95;;;;;;;12.63;100.00;101064.75;8393716;28;20486;-50
2022/10/31 03:10:58;;;;;;;22.27;10.38;;;;;;;12.67;100.00;101055.31;8375455;28;20095;-51
2022/10/31 03:15:22;;;;;;;20.88;8.98;;;;;;;12.82;100.00;101057.50;8369387;28;20447;-50
2022/10/31 03:19:32;;;;;;;15.80;8.20;;;;;;;12.96;100.00;101053.50;8377036;28;20044;-50
2022/10/31 03:23:35;;;;;;;20.30;9.30;;;;;;;13.07;100.00;101061.53;8393748;28;20105;-54
2022/10/31 03:27:39;;;;;;;19.33;9.13;;;;;;;12.90;100.00;101054.06;8394358;28;20116;-50
2022/10/31 03:31:50;;;;;;;20.30;10.03;;;;;;;12.86;100.00;101049.91;8394446;28;20055;-50
2022/10/31 03:35:54;;;;;;;18.35;8.25;;;;;;;12.86;100.00;101047.19;8386413;28;20359;-51
2022/10/31 03:39:59;;;;;;;17.42;8.68;;;;;;;12.80;100.00;101051.34;8376273;28;20044;-53
2022/10/31 03:44:07;;;;;;;15.82;9.23;;;;;;;12.80;100.00;101040.50;8367913;28;20059;-54
2022/10/31 03:48:08;;;;;;;18.58;11.57;;;;;;;12.68;100.00;101029.91;8377599;28;20047;-52
2022/10/31 03:52:24;;;;;;;22.10;8.88;;;;;;;12.71;100.00;101029.63;8376789;28;20041;-52
2022/10/31 03:56:34;;;;;;;21.60;9.73;;;;;;;12.73;100.00;101041.19;8376115;28;20048;-52
2022/10/31 04:00:40;;;;;;;17.45;9.18;;;;;;;12.68;100.00;101049.75;8374705;28;20046;-54
2022/10/31 04:04:43;;;;;;;18.25;8.95;;;;;;;12.64;100.00;101047.47;8376019;28;20036;-55
2022/10/31 04:08:53;;;;;;;20.40;9.70;;;;;;;12.65;100.00;101044.63;8375211;28;20063;-51
2022/10/31 04:13:00;;;;;;;17.13;9.20;;;;;;;12.64;100.00;101044.75;8386581;28;20115;-55
2022/10/31 04:17:12;;;;;;;23.10;8.75;;;;;;;12.62;100.00;101038.59;8391770;28;20124;-55
2022/10/31 04:21:15;;;;;;;20.95;9.80;;;;;;;12.60;100.00;101048.75;8392600;28;20512;-55
2022/10/31 04:25:16;;;;;;;25.48;10.23;;;;;;;12.67;100.00;101041.75;8385564;28;20140;-52
2022/10/31 04:29:17;;;;;;;23.42;9.68;;;;;;;12.86;100.00;101028.19;8377207;28;20040;-52
2022/10/31 04:33:18;;;;;;;21.23;9.77;;;;;;;12.93;100.00;101037.50;8376111;28;20048;-55
2022/10/31 04:37:20;;;;;;;20.23;9.10;;;;;;;12.90;100.00;101037.78;8376033;28;20071;-53
2022/10/31 04:41:22;;;;;;;18.83;8.60;;;;;;;12.93;100.00;101032.09;8375754;28;20040;-55
2022/10/31 04:45:26;;;;;;;;;;;;;;;12.94;100.00;101022.94;8376261;28;20414;-55
2022/10/31 04:49:28;;;;;;;16.58;9.27;;;;;;;12.92;100.00;101014.06;8390791;28;19920;-54
2022/10/31 04:53:29;;;;;;;21.50;10.02;;;;;;;12.91;100.00;101010.50;8391412;28;20051;-54
2022/10/31 04:57:50;;;;;;;17.65;9.10;;;;;;;12.85;100.00;101012.94;8390699;28;20108;-52
2022/10/31 05:01:52;;;;;;;25.02;10.23;;;;;;;12.88;100.00;101018.06;8357855;28;20129;-53
2022/10/31 05:05:59;;;;;;;24.58;10.13;;;;;;;12.91;100.00;101023.22;8358800;28;20498;-55
2022/10/31 05:10:00;;;;;;;18.27;9.63;;;;;;;12.98;100.00;101016.19;8324727;28;20445;-54
2022/10/31 05:14:02;;;;;;;19.05;9.45;;;;;;;13.03;100.00;101006.69;8346865;28;20044;-52
2022/10/31 05:18:22;;;;;;;29.50;10.48;;;;;;;13.06;100.00;101002.81;8353999;28;20493;-55
2022/10/31 05:22:45;;;;;;;23.55;10.73;;;;;;;13.12;100.00;101004.94;8385253;28;20553;-56
2022/10/31 05:26:46;;;;;;;19.67;9.43;;;;;;;12.94;100.00;100987.66;8387990;28;20043;-54
2022/10/31 05:30:47;;;;;;;18.92;9.02;;;;;;;12.70;100.00;100998.06;8355367;28;20044;-53
2022/10/31 05:34:50;;;;;;;19.80;8.68;;;;;;;12.53;100.00;100996.91;8349094;28;20036;-55
2022/10/31 05:39:10;;;;;;;13.85;9.20;;;;;;;12.43;100.00;101000.63;8345824;28;20568;-54
2022/10/31 05:43:16;;;;;;;20.40;10.30;;;;;;;12.38;100.00;101002.91;8364150;28;20080;-51
2022/10/31 05:47:17;;;;;;;21.05;11.07;;;;;;;12.42;100.00;100999.78;8354504;28;20119;-55
2022/10/31 05:51:37;;;;;;;22.17;10.45;;;;;;;12.36;100.00;100997.63;8364243;28;20129;-55
2022/10/31 05:55:40;;;;;;;20.80;9.52;;;;;;;12.37;100.00;100995.75;8353623;28;20041;-54
2022/10/31 05:59:47;;;;;;;21.73;10.23;;;;;;;12.42;100.00;100998.91;8369304;28;20075;-54
2022/10/31 06:03:48;;;;;;;24.60;10.63;;;;;;;12.51;100.00;100993.50;8368866;28;20045;-55
2022/10/31 06:07:50;;;;;;;22.23;10.60;;;;;;;12.56;100.00;100998.50;8360478;28;20186;-54
2022/10/31 06:11:51;;;;;;;20.00;10.68;;;;;;;12.55;100.00;100988.63;8382188;28;20041;-54
2022/10/31 06:16:10;;;;;;;23.45;10.05;;;;;;;12.52;100.00;100983.50;8343881;27;20788;-56
2022/10/31 06:20:13;;;;;;;23.65;10.65;;;;;;;12.48;100.00;100992.91;8327319;28;20159;-54
2022/10/31 06:24:26;;;;;;;13.57;9.32;;;;;;;12.44;100.00;100984.19;8346975;28;20075;-52
2022/10/31 06:28:39;;;;;;;25.42;9.38;;;;;;;12.18;100.00;100996.59;8483696;27;20120;-53
2022/10/31 06:32:51;;;;;;;19.52;9.73;;;;;;;12.52;100.00;100984.38;8450352;28;20044;-53
2022/10/31 06:36:54;;;;;;;18.95;9.43;;;;;;;12.23;100.00;100972.59;8438129;28;20070;-52
2022/10/31 06:41:02;;;;;;;22.35;10.13;;;;;;;12.19;100.00;100964.91;8405525;28;20052;-54
2022/10/31 06:45:09;;;;;;;19.65;10.18;;;;;;;12.18;100.00;100984.88;8395319;28;20045;-53
2022/10/31 06:49:30;;;;;;;21.88;10.73;;;;;;;12.31;100.00;100985.47;8412018;28;20047;-51
2022/10/31 06:53:35;;;;;;;20.38;10.65;;;;;;;12.33;100.00;100978.06;8388255;28;20041;-54
2022/10/31 06:57:37;;;;;;;22.90;9.73;;;;;;;12.45;100.00;100976.94;8413433;28;20158;-55
2022/10/31 07:02:11;;;;;;;17.92;9.45;;;;;;;12.47;100.00;100996.66;8394502;28;20036;-53
2022/10/31 07:06:13;;;;;;;25.33;10.15;;;;;;;12.74;100.00;101004.91;8393550;28;20498;-54
2022/10/31 07:10:14;;;;;;;14.50;8.98;;;;;;;12.73;100.00;101008.63;8403602;28;20542;-54
2022/10/31 07:14:24;;;;;;;17.20;9.13;;;;;;;12.64;100.00;101014.91;8403792;28;20032;-53
2022/10/31 07:18:28;;;;;;;14.55;8.50;;;;;;;12.62;100.00;101022.31;8407057;28;20036;-53
2022/10/31 07:22:36;;;;;;;21.60;9.18;;;;;;;12.56;100.00;101020.22;8447345;28;20409;-53
2022/10/31 07:26:39;;;;;;;25.27;9.40;;;;;;;12.70;100.00;101011.63;8442657;28;20265;-54
2022/10/31 07:30:39;;;;;;;25.48;10.00;;;;;;;12.81;100.00;100997.94;8449141;28;20047;-54
2022/10/31 07:34:42;;;;;;;20.00;9.93;;;;;;;12.82;100.00;101010.50;8446173;28;20062;-53
2022/10/31 07:38:50;;;;;;;18.25;8.73;;;;;;;12.85;100.00;100993.94;8401574;28;20115;-54
2022/10/31 07:42:52;;;;;;;23.77;14.00;;;;;;;12.88;100.00;100999.94;8409468;28;20050;-53
2022/10/31 07:47:13;;;;;;;21.80;11.50;;;;;;;13.06;100.00;101008.25;8376150;28;20049;-55
2022/10/31 07:51:34;;;;;;;28.17;12.40;;;;;;;13.21;100.00;101021.19;8421820;28;20032;-54
2022/10/31 07:55:54;;;;;;;24.90;10.65;;;;;;;13.22;100.00;101016.66;8402036;28;20041;-55
2022/10/31 08:00:06;;;;;;;20.08;10.05;;;;;;;13.35;100.00;101012.63;8390029;28;20051;-50
2022/10/31 08:04:18;;;;;;;25.27;10.27;;;;;;;13.41;100.00;101003.03;8406185;28;20044;-54
2022/10/31 08:08:38;;;;;;;21.83;10.70;;;;;;;13.39;100.00;101007.75;8411163;28;20078;-54
2022/10/31 08:12:41;;;;;;;23.55;10.63;;;;;;;13.46;100.00;101009.75;8399172;28;20037;-54
2022/10/31 08:16:42;;;;;;;21.42;10.13;;;;;;;13.57;100.00;101009.56;8405867;28;20036;-53
2022/10/31 08:20:44;;;;;;;26.23;11.57;;;;;;;13.74;100.00;101016.06;8378494;28;20421;-52
2022/10/31 08:24:45;;;;;;;23.80;11.75;;;;;;;13.71;100.00;101013.66;8391570;28;20032;-53
2022/10/31 08:28:46;;;;;;;19.92;9.25;;;;;;;13.72;100.00;101009.94;8377167;28;20066;-55
2022/10/31 08:32:59;;;;;;;20.35;10.20;;;;;;;13.78;100.00;101010.19;8421116;28;20047;-53
2022/10/31 08:37:19;;;;;;;24.65;9.38;;;;;;;13.90;100.00;101002.69;8407453;28;20450;-55
2022/10/31 08:41:23;;;;;;;24.80;8.98;;;;;;;14.06;100.00;101002.91;8421361;28;20028;-55
2022/10/31 08:45:24;;;;;;;26.38;9.77;;;;;;;14.08;100.00;100998.19;8406542;28;20048;-53
2022/10/31 08:49:25;;;;;;;24.25;9.30;;;;;;;14.17;100.00;100997.28;8418702;28;20032;-54
2022/10/31 08:53:26;;;;;;;23.95;10.55;;;;;;;14.32;100.00;100987.63;8422105;28;20493;-55
2022/10/31 08:57:42;;;;;;;31.92;10.77;;;;;;;14.52;100.00;100988.34;8419947;28;20034;-55
2022/10/31 09:02:01;;;;;;;19.95;9.27;;;;;;;14.70;100.00;100981.88;8413704;28;20051;-55
2022/10/31 09:06:05;;;;;;;20.90;9.57;;;;;;;14.77;100.00;100971.25;8388691;28;20036;-54
2022/10/31 09:10:06;;;;;;;20.77;9.73;;;;;;;15.16;100.00;100954.38;8413422;28;20044;-55
2022/10/31 09:14:10;;;;;;;22.07;9.90;;;;;;;15.53;100.00;100949.53;8420133;28;20036;-55
2022/10/31 09:18:19;;;;;;;20.85;10.15;;;;;;;16.06;100.00;100951.13;8420663;28;20058;-55
2022/10/31 09:22:28;;;;;;;24.35;9.98;;;;;;;16.40;99.35;100941.88;8421771;28;20531;-54
2022/10/31 09:26:30;;;;;;;16.30;9.50;;;;;;;16.58;98.67;100944.47;8421272;28;20382;-52
2022/10/31 09:30:38;;;;;;;21.92;10.13;;;;;;;16.64;99.07;100933.75;8444516;28;20035;-55
2022/10/31 09:34:39;;;;;;;23.52;9.70;;;;;;;17.27;95.62;100928.44;8414015;28;20036;-55
2022/10/31 09:38:44;;;;;;;23.60;9.20;;;;;;;17.69;91.18;100922.72;8421482;28;20059;-53
2022/10/31 09:43:00;;;;;;;19.65;9.07;;;;;;;18.84;85.57;100917.06;8421047;28;20035;-55
2022/10/31 09:47:26;;;;;;;21.58;8.75;;;;;;;19.45;81.84;100911.38;8402995;28;20036;-54
2022/10/31 09:51:57;;;;;;;18.80;7.85;;;;;;;19.22;81.56;100905.06;8417403;28;20035;-54
2022/10/31 09:56:07;;;;;;;17.35;7.88;;;;;;;19.69;79.85;100893.78;8360423;28;20051;-55
2022/10/31 10:00:17;;;;;;;18.27;7.05;;;;;;;20.30;78.81;100895.19;8426004;28;20032;-55
2022/10/31 10:04:44;;;;;;;13.20;6.78;;;;;;;20.34;77.14;100888.28;8420590;28;20044;-54
2022/10/31 10:08:50;;;;;;;15.27;7.50;;;;;;;19.36;81.03;100863.13;8373074;28;20054;-55
2022/10/31 10:13:48;;;;;;;22.33;8.40;;;;;;;18.07;87.99;100862.50;8385176;28;20045;-54
2022/10/31 10:18:13;;;;;;;20.00;8.48;;;;;;;17.79;89.99;100846.75;8419367;28;20264;-55
2022/10/31 10:22:41;;;;;;;18.25;8.13;;;;;;;17.76;91.57;100838.91;8419686;28;20532;-55
2022/10/31 10:26:53;;;;;;;19.90;7.70;;;;;;;18.29;89.16;100850.72;8419878;28;20044;-55
2022/10/31 10:31:01;;;;;;;20.55;8.45;;;;;;;18.30;88.59;100857.88;8445977;28;20088;-55
2022/10/31 10:35:22;;;;;;;15.63;7.88;;;;;;;18.39;89.47;100862.31;8429926;28;20050;-55
2022/10/31 10:39:29;;;;;;;20.80;8.20;;;;;;;18.44;89.15;100842.59;8420060;28;20115;-55
2022/10/31 10:43:35;;;;;;;20.05;8.10;;;;;;;18.75;86.27;100835.13;8405612;28;20024;-55
2022/10/31 10:47:42;;;;;;;17.77;7.43;;;;;;;19.11;84.55;100819.69;8420149;28;20043;-55
2022/10/31 10:51:51;;;;;;;16.38;7.35;;;;;;;19.29;83.78;100821.06;8419871;28;20059;-55
2022/10/31 10:56:12;;;;;;;15.15;7.20;;;;;;;20.07;81.45;100834.91;8419978;28;20047;-55
2022/10/31 11:00:20;;;;;;;19.83;7.15;;;;;;;20.13;80.98;100844.31;8421853;28;20040;-55
2022/10/31 11:04:28;;;;;;;15.60;6.30;;;;;;;20.15;79.45;100847.72;8416136;28;20417;-54
2022/10/31 11:08:36;;;;;;;14.15;6.53;;;;;;;20.39;78.22;100839.09;8413762;28;20048;-55
2022/10/31 11:12:37;;;;;;;15.57;6.97;;;;;;;20.40;78.57;100829.84;8414199;28;20040;-53
2022/10/31 11:16:42;;;;;;;15.50;6.63;;;;;;;20.89;76.59;100836.19;8423410;28;20143;-55
2022/10/31 11:20:52;;;;;;;17.10;7.45;;;;;;;20.85;76.15;100818.38;8408670;28;20032;-55
2022/10/31 11:24:53;;;;;;;21.13;7.43;;;;;;;20.88;76.18;100813.34;8425730;28;20044;-55
2022/10/31 11:28:59;;;;;;;16.00;7.20;;;;;;;20.27;78.39;100807.72;8425294;28;20582;-55
2022/10/31 11:32:59;;;;;;;18.60;7.15;;;;;;;20.41;77.74;100791.19;8424447;28;20054;-55
2022/10/31 11:37:11;;;;;;;13.43;6.60;;;;;;;20.19;79.40;100783.16;8424700;28;20520;-55
2022/10/31 11:41:16;;;;;;;16.00;8.52;;;;;;;20.13;79.61;100772.94;8403256;28;20036;-55
2022/10/31 11:45:28;;;;;;;15.98;8.75;;;;;;;20.03;81.62;100767.72;8429001;28;20035;-55
2022/10/31 11:49:36;;;;;;;14.30;7.45;;;;;;;19.91;82.55;100746.50;8421315;28;20047;-55
2022/10/31 11:53:36;;;;;;;20.85;6.80;;;;;;;19.62;81.94;100752.94;8382251;28;20045;-55
2022/10/31 11:57:54;;;;;;;19.95;7.25;;;;;;;19.31;83.38;100739.44;8377235;28;20098;-55
2022/10/31 12:01:57;;;;;;;17.88;7.90;;;;;;;19.11;84.09;100731.97;8375408;28;20041;-55
2022/10/31 12:06:12;;;;;;;43.03;21.55;;;;;;;19.01;84.70;100740.50;8386931;28;20048;-52
2022/10/31 12:10:13;;;;;;;15.65;9.10;;;;;;;19.00;84.21;100724.25;8377091;28;20403;-53
2022/10/31 12:19:06;;;;;;;19.33;7.10;;;;;;;18.95;84.20;100722.09;8392048;27;20388;-52
2022/10/31 12:23:29;;;;;;;16.15;6.70;;;;;;;18.86;84.56;100715.00;8369096;28;20033;-52
2022/10/31 12:27:58;;;;;;;15.53;7.40;;;;;;;18.72;86.19;100698.53;8344925;28;20566;-55
2022/10/31 12:32:18;;;;;;;17.38;8.30;;;;;;;18.59;85.72;100682.78;8317157;28;20052;-54
2022/10/31 12:36:44;;;;;;;18.98;7.68;;;;;;;18.49;86.22;100665.78;8406388;28;20056;-55
2022/10/31 12:41:00;;;;;;;19.67;7.53;;;;;;;18.45;86.48;100653.47;8414197;28;20039;-54
2022/10/31 12:49:49;;;;;;;17.88;7.10;;;;;;;18.58;85.79;100623.56;8347370;27;20459;-54
2022/10/31 12:58:10;;;;;;;15.68;6.35;;;;;;;18.82;84.44;100604.06;8368432;27;20823;-54
2022/10/31 13:02:35;;;;;;;13.77;6.07;;;;;;;18.92;84.93;100610.13;8343039;28;20040;-52
2022/10/31 13:06:42;;;;;;;15.00;6.22;;;;;;;18.96;84.22;100602.34;8323444;28;20053;-52
2022/10/31 13:10:49;;;;;;;18.85;6.63;;;;;;;18.86;84.12;100608.13;8327397;28;20033;-55
2022/10/31 13:14:54;;;;;;;21.92;6.30;;;;;;;18.81;84.04;100605.13;8303590;28;20137;-51
2022/10/31 13:19:04;;;;;;;13.85;6.20;;;;;;;18.76;84.89;100599.34;8338473;28;20558;-54
2022/10/31 13:23:17;;;;;;;18.60;6.72;;;;;;;18.72;85.69;100584.34;8290975;28;20038;-52
2022/10/31 13:27:24;;;;;;;14.63;5.85;;;;;;;18.74;86.21;100575.94;8311133;28;20038;-52
2022/10/31 13:31:25;;;;;;;15.98;5.80;;;;;;;18.71;86.37;100560.75;8310801;28;20499;-54
2022/10/31 13:35:52;;;;;;;14.57;6.10;;;;;;;18.77;85.78;100557.25;8315303;28;20403;-52
2022/10/31 13:40:17;;;;;;;12.27;5.55;;;;;;;18.75;85.20;100551.09;8310491;28;20041;-54
2022/10/31 13:44:24;;;;;;;16.77;6.10;;;;;;;18.77;85.17;100537.19;8313823;28;20037;-55
2022/10/31 13:52:37;;;;;;;19.17;6.45;;;;;;;18.77;84.95;100527.09;8416101;27;20122;-54
2022/10/31 13:56:39;;;;;;;18.58;5.57;;;;;;;18.78;84.40;100514.25;8400712;28;20040;-54
2022/10/31 14:00:40;;;;;;;19.13;5.35;;;;;;;18.79;84.17;100508.56;8370370;28;20528;-55
2022/10/31 14:04:48;;;;;;;13.88;5.35;;;;;;;18.79;84.59;100497.59;8368083;28;20403;-54
2022/10/31 14:08:51;;;;;;;20.58;5.38;;;;;;;18.76;84.36;100489.78;8392398;28;20028;-52
2022/10/31 14:13:02;;;;;;;12.15;4.72;;;;;;;18.77;84.66;100476.94;8390064;28;20055;-54
2022/10/31 14:17:03;;;;;;;13.75;5.63;;;;;;;18.79;83.79;100464.72;8378325;28;20040;-55
2022/10/31 14:25:36;;;;;;;19.42;5.32;;;;;;;18.86;83.30;100449.25;8308684;28;20387;-54
2022/10/31 14:29:37;;;;;;;11.75;5.38;;;;;;;18.89;83.17;100454.31;8306312;28;20037;-54
2022/10/31 14:33:42;;;;;;;17.98;4.82;;;;;;;18.94;82.82;100438.13;8330982;28;20043;-54
2022/10/31 14:38:08;;;;;;;17.88;5.13;;;;;;;18.97;83.23;100439.66;8314787;28;20129;-52
2022/10/31 14:42:25;;;;;;;13.18;5.50;;;;;;;19.05;81.77;100443.09;8315233;28;20513;-54
2022/10/31 14:46:44;;;;;;;17.63;5.65;;;;;;;19.10;81.89;100440.63;8312412;28;20046;-52
2022/10/31 14:50:49;;;;;;;15.07;5.15;;;;;;;19.11;81.68;100438.69;8305986;28;20089;-52
2022/10/31 14:54:54;;;;;;;17.15;5.80;;;;;;;19.09;81.63;100433.41;8314674;28;20415;-54
2022/10/31 14:59:00;;;;;;;12.43;5.03;;;;;;;19.10;82.06;100434.28;8307379;28;20033;-52
2022/10/31 15:03:22;;;;;;;17.17;4.88;;;;;;;19.12;81.66;100432.19;8308389;28;20519;-54
2022/10/31 15:07:26;;;;;;;14.32;5.13;;;;;;;19.16;81.35;100417.03;8306748;28;20038;-54
2022/10/31 15:11:27;;;;;;;10.38;4.85;;;;;;;19.08;81.52;100409.81;8310714;28;20125;-54
2022/10/31 15:15:28;;;;;;;15.50;4.60;;;;;;;19.05;81.70;100404.72;8313685;28;20041;-54
2022/10/31 15:19:30;;;;;;;16.38;5.18;;;;;;;19.06;81.71;100400.94;8311760;28;20061;-55
2022/10/31 15:23:31;;;;;;;9.73;4.32;;;;;;;19.09;80.99;100395.06;8312931;28;20033;-51
2022/10/31 15:27:33;;;;;;;13.45;5.00;;;;;;;19.00;81.23;100378.97;8312165;28;20048;-55
2022/10/31 15:31:33;;;;;;;17.70;4.88;;;;;;;18.92;81.68;100371.75;8312153;28;20030;-52
2022/10/31 15:35:34;;;;;;;14.55;4.60;;;;;;;18.88;81.38;100364.94;8297717;28;20049;-55
2022/10/31 15:39:35;;;;;;;13.55;4.90;;;;;;;18.83;81.30;100356.47;8287416;28;20529;-54
2022/10/31 15:43:38;;;;;;;15.65;5.38;;;;;;;18.75;81.83;100359.34;8291031;28;20056;-54
2022/10/31 15:47:44;;;;;;;10.75;5.00;;;;;;;18.66;81.99;100362.44;8274120;28;20347;-55
2022/10/31 15:51:45;;;;;;;10.73;5.07;;;;;;;18.49;82.59;100361.00;8258121;28;20161;-54
2022/10/31 15:55:51;;;;;;;10.63;5.00;;;;;;;18.37;83.22;100355.19;8263498;28;20045;-53
2022/10/31 15:59:53;;;;;;;11.00;5.40;;;;;;;18.36;82.76;100353.44;8289150;28;20048;-52
2022/10/31 16:04:19;;;;;;;15.38;5.45;;;;;;;18.23;83.39;100350.56;8286534;28;20037;-55
2022/10/31 16:08:36;;;;;;;13.07;5.10;;;;;;;18.13;83.69;100357.41;8287274;28;20515;-54
2022/10/31 16:12:44;;;;;;;16.48;5.32;;;;;;;18.01;84.32;100348.84;8277117;28;20038;-54
2022/10/31 16:16:49;;;;;;;15.27;5.32;;;;;;;17.89;84.90;100347.66;8289194;28;20507;-54
2022/10/31 16:20:52;;;;;;;11.45;5.07;;;;;;;17.78;85.71;100347.28;8288158;28;20388;-54
2022/10/31 16:29:26;;;;;;;12.40;4.93;;;;;;;17.73;85.63;100339.66;8318796;28;20401;-52
2022/10/31 16:33:33;;;;;;;18.48;5.50;;;;;;;17.65;85.97;100347.97;8293665;28;20034;-52
2022/10/31 16:37:33;;;;;;;15.30;4.50;;;;;;;17.64;86.10;100351.75;8253679;28;20038;-53
2022/10/31 16:41:39;;;;;;;13.50;4.85;;;;;;;17.66;85.91;100348.81;8293932;28;20521;-54
2022/10/31 16:45:46;;;;;;;9.85;5.20;;;;;;;17.55;86.35;100351.00;8282611;28;20169;-55
2022/10/31 16:49:49;;;;;;;12.30;5.60;;;;;;;17.57;86.15;100356.28;8283304;28;20097;-53
2022/10/31 16:53:52;;;;;;;17.10;6.40;;;;;;;17.49;86.61;100353.63;8283142;28;20367;-51
2022/10/31 16:57:54;;;;;;;19.60;6.32;;;;;;;17.43;86.69;100348.91;8258329;28;20439;-53
2022/10/31 17:01:55;;;;;;;12.43;5.22;;;;;;;17.32;87.26;100357.53;8282299;28;20049;-55
2022/10/31 17:05:56;;;;;;;16.50;5.07;;;;;;;17.31;86.91;100355.84;8278362;28;20531;-53
2022/10/31 17:09:56;;;;;;;17.25;6.28;;;;;;;17.12;87.87;100353.66;8251336;28;20061;-54
2022/10/31 17:13:58;;;;;;;15.68;5.50;;;;;;;17.07;88.41;100353.38;8281174;28;20117;-55
2022/10/31 17:17:58;;;;;;;16.58;5.70;;;;;;;17.00;88.74;100346.97;8279942;28;20125;-54
2022/10/31 17:22:01;;;;;;;9.75;5.10;;;;;;;16.91;89.39;100348.06;8273676;28;20042;-53
2022/10/31 17:26:02;;;;;;;17.55;6.20;;;;;;;16.85;89.39;100336.03;8259741;28;20046;-54
2022/10/31 17:30:03;;;;;;;15.45;5.75;;;;;;;16.73;89.73;100344.81;8301246;28;20593;-55
2022/10/31 17:34:05;;;;;;;15.23;6.32;;;;;;;16.71;89.92;100333.25;8270618;28;20034;-52
2022/10/31 17:38:05;;;;;;;12.82;5.28;;;;;;;16.78;89.32;100336.94;8269261;28;20526;-54
2022/10/31 17:42:06;;;;;;;13.18;5.18;;;;;;;16.79;89.37;100344.09;8260298;28;20389;-54
2022/10/31 17:46:07;;;;;;;9.23;4.50;;;;;;;16.90;88.82;100343.66;8233030;28;20039;-53
2022/10/31 17:50:08;;;;;;;14.93;5.68;;;;;;;17.00;88.06;100336.03;8271205;28;20459;-54
2022/10/31 17:54:09;;;;;;;12.52;4.63;;;;;;;16.84;88.75;100350.69;8255697;28;20042;-55
2022/10/31 17:58:12;;;;;;;13.40;4.63;;;;;;;16.60;89.72;100334.53;8259786;28;20073;-53
2022/10/31 18:02:13;;;;;;;15.10;5.70;;;;;;;16.59;89.89;100343.75;8259381;28;20061;-54
2022/10/31 18:06:15;;;;;;;21.33;8.52;;;;;;;16.40;90.86;100322.38;8250401;28;20062;-54
2022/10/31 18:10:16;;;;;;;20.05;9.38;;;;;;;16.16;92.19;100314.38;8228430;28;20386;-54
2022/10/31 18:14:17;;;;;;;29.52;13.57;;;;;;;16.04;93.15;100325.91;8244760;28;20038;-54
2022/10/31 18:18:18;;;;;;;20.60;9.50;;;;;;;15.99;93.58;100325.59;8259064;28;20093;-55
2022/10/31 18:22:18;;;;;;;19.52;9.50;;;;;;;16.03;93.12;100311.41;8256891;28;20065;-54
2022/10/31 18:26:19;;;;;;;16.17;9.05;;;;;;;16.06;92.90;100304.72;8259325;28;20054;-55
2022/10/31 18:30:19;;;;;;;14.43;7.25;;;;;;;16.03;93.07;100299.63;8258095;28;20043;-55
2022/10/31 18:34:20;;;;;;;12.55;6.72;;;;;;;16.16;92.34;100291.72;8256490;28;20053;-54
2022/10/31 18:38:21;;;;;;;10.88;6.65;;;;;;;16.27;91.66;100296.75;8259319;28;20042;-53
2022/10/31 18:42:22;;;;;;;14.93;6.57;;;;;;;16.20;92.09;100298.50;8261543;28;20042;-55
2022/10/31 18:46:22;;;;;;;14.80;6.63;;;;;;;16.17;92.34;100297.00;8262137;28;20167;-55
2022/10/31 18:50:23;;;;;;;18.23;8.15;;;;;;;16.11;92.60;100288.69;8255645;28;20129;-55
2022/10/31 18:54:24;;;;;;;13.07;5.97;;;;;;;16.06;92.78;100285.63;8261692;28;20058;-55
2022/10/31 18:58:26;;;;;;;21.08;7.00;;;;;;;16.01;92.99;100282.63;8265648;28;20403;-55
2022/10/31 19:02:26;;;;;;;19.70;8.07;;;;;;;15.91;93.30;100288.31;8274779;28;20361;-55
2022/10/31 19:06:29;;;;;;;17.38;7.07;;;;;;;15.81;93.84;100293.16;8257877;28;20042;-54
2022/10/31 19:10:32;;;;;;;18.85;6.80;;;;;;;15.81;93.98;100286.84;8257933;28;20057;-55
2022/10/31 19:14:33;;;;;;;11.27;5.65;;;;;;;15.80;94.01;100280.56;8250775;28;20042;-54